Time;durP1;ratioP1;P1;durP2;ratioP2;P2;SDS_P1;SDS_P2;PMS_P1;PMS_P2;Temp;Humidity;BMP_temperature;BMP_pressure;BME280_temperature;BME280_humidity;BME280_pressure;Samples;Min_cycle;Max_cycle;Signal;HPM_P1;HPM_P2
2023/07/10 00:01:27;;;;;;;5.10;3.60;;;23.30;66.10;;;;;;4916868;29;20039;-61
2023/07/10 00:03:54;;;;;;;5.00;3.38;;;23.20;65.80;;;;;;4915870;29;20151;-62
2023/07/10 00:06:20;;;;;;;5.97;3.33;;;23.20;67.20;;;;;;4920656;29;20036;-62
2023/07/10 00:08:46;;;;;;;6.32;3.67;;;23.20;67.50;;;;;;4922421;29;20040;-62
2023/07/10 00:11:25;;;;;;;8.25;4.22;;;23.10;67.10;;;;;;4922859;29;20076;-62
2023/07/10 00:13:51;;;;;;;6.57;4.05;;;23.10;66.00;;;;;;4922599;29;20032;-62
2023/07/10 00:16:21;;;;;;;4.97;4.07;;;23.10;65.20;;;;;;4920327;29;20163;-62
2023/07/10 00:18:48;;;;;;;4.53;3.42;;;23.20;65.60;;;;;;4921978;29;20074;-61
2023/07/10 00:21:13;;;;;;;5.38;3.70;;;23.20;66.40;;;;;;4921333;29;20036;-62
2023/07/10 00:23:39;;;;;;;7.70;5.85;;;23.20;66.70;;;;;;4920686;29;20083;-62
2023/07/10 00:26:23;;;;;;;7.15;4.32;;;23.20;68.20;;;;;;4926951;29;20038;-62
2023/07/10 00:28:51;;;;;;;4.85;3.47;;;23.20;68.30;;;;;;4923878;29;20844;-62
2023/07/10 00:31:17;;;;;;;5.68;3.70;;;23.30;67.10;;;;;;4905790;29;20040;-62
2023/07/10 00:33:47;;;;;;;5.35;3.90;;;23.30;67.10;;;;;;4920462;29;20071;-62
2023/07/10 00:36:27;;;;;;;5.68;4.35;;;23.40;67.80;;;;;;4920405;29;20036;-62
2023/07/10 00:38:54;;;;;;;9.23;4.88;;;23.40;67.90;;;;;;4919613;29;20532;-62
2023/07/10 00:41:22;;;;;;;5.60;3.70;;;23.40;67.80;;;;;;4920499;29;20793;-62
2023/07/10 00:43:55;;;;;;;7.30;3.60;;;23.40;67.80;;;;;;4926878;29;20035;-62
2023/07/10 00:46:29;;;;;;;4.93;3.50;;;23.50;69.30;;;;;;4906428;29;20032;-62
2023/07/10 00:49:06;;;;;;;4.80;3.50;;;23.50;69.30;;;;;;4906859;29;20043;-62
2023/07/10 00:51:38;;;;;;;4.72;3.55;;;23.50;68.80;;;;;;4904145;29;20031;-62
2023/07/10 00:54:05;;;;;;;4.60;3.45;;;23.40;68.90;;;;;;4923401;29;20064;-62
2023/07/10 00:56:45;;;;;;;5.25;3.67;;;23.40;69.50;;;;;;4920023;29;20043;-62
2023/07/10 00:59:25;;;;;;;4.38;3.70;;;23.40;70.00;;;;;;4926275;29;20034;-62
2023/07/10 01:02:13;;;;;;;5.53;3.97;;;23.40;70.40;;;;;;4927664;29;20048;-62
2023/07/10 01:04:45;;;;;;;5.55;3.70;;;23.30;68.90;;;;;;4924233;29;20058;-62
2023/07/10 01:07:15;;;;;;;5.38;3.63;;;23.30;69.00;;;;;;4924207;29;20032;-62
2023/07/10 01:09:46;;;;;;;5.40;3.42;;;23.40;67.70;;;;;;4921710;29;20355;-62
2023/07/10 01:12:12;;;;;;;4.80;3.70;;;23.30;66.80;;;;;;4901690;29;20040;-62
2023/07/10 01:14:39;;;;;;;5.43;3.45;;;23.40;68.90;;;;;;4918495;29;20040;-62
2023/07/10 01:17:07;;;;;;;7.50;3.92;;;23.40;69.20;;;;;;4924856;29;20055;-62
2023/07/10 01:19:35;;;;;;;4.03;3.45;;;23.40;69.80;;;;;;4927193;29;20087;-62
2023/07/10 01:22:03;;;;;;;4.10;3.65;;;23.30;70.60;;;;;;4925493;29;20020;-62
2023/07/10 01:24:29;;;;;;;6.55;3.75;;;23.30;70.10;;;;;;4923516;29;20127;-62
2023/07/10 01:26:57;;;;;;;6.13;3.88;;;23.20;69.90;;;;;;4923128;29;20509;-61
2023/07/10 01:29:33;;;;;;;4.53;3.65;;;23.10;71.40;;;;;;4921687;29;20059;-61
2023/07/10 01:32:02;;;;;;;10.13;4.57;;;23.00;73.10;;;;;;4922143;29;20046;-62
2023/07/10 01:34:39;;;;;;;5.03;3.83;;;23.00;72.50;;;;;;4920757;29;20768;-61
2023/07/10 01:37:05;;;;;;;8.30;4.32;;;22.80;74.30;;;;;;4922711;29;20028;-61
2023/07/10 01:39:42;;;;;;;5.57;4.03;;;22.70;74.50;;;;;;4925836;29;20080;-61
2023/07/10 01:42:08;;;;;;;6.22;4.18;;;22.60;75.10;;;;;;4924970;29;20063;-61
2023/07/10 01:44:37;;;;;;;4.90;3.80;;;22.50;75.30;;;;;;4905252;29;20798;-61
2023/07/10 01:47:05;;;;;;;4.53;3.70;;;22.50;76.30;;;;;;4920373;29;20118;-61
2023/07/10 01:49:43;;;;;;;5.40;3.97;;;22.40;76.60;;;;;;4919411;29;20052;-61
2023/07/10 01:52:12;;;;;;;4.05;3.40;;;22.40;76.50;;;;;;4917477;29;20089;-61
2023/07/10 01:54:38;;;;;;;5.35;4.18;;;22.40;77.80;;;;;;4926400;29;20046;-61
2023/07/10 01:57:05;;;;;;;7.05;3.80;;;22.40;78.70;;;;;;4908720;29;20492;-61
2023/07/10 01:59:31;;;;;;;6.90;3.78;;;22.40;79.60;;;;;;4922542;29;20405;-61
2023/07/10 02:01:59;;;;;;;4.35;3.67;;;22.40;78.70;;;;;;4910171;29;20090;-61
2023/07/10 02:04:26;;;;;;;5.80;3.88;;;22.30;78.20;;;;;;4921212;29;20058;-61
2023/07/10 02:06:56;;;;;;;6.07;4.25;;;22.30;78.70;;;;;;4920140;29;20115;-61
2023/07/10 02:09:24;;;;;;;6.05;4.38;;;22.30;79.60;;;;;;4922652;29;20452;-61
2023/07/10 02:11:51;;;;;;;4.95;3.83;;;22.30;79.40;;;;;;4909937;29;20046;-61
2023/07/10 02:14:18;;;;;;;5.88;4.38;;;22.30;77.70;;;;;;4925779;29;20055;-61
2023/07/10 02:16:45;;;;;;;5.60;4.22;;;22.30;77.60;;;;;;4921888;29;20036;-61
2023/07/10 02:19:12;;;;;;;5.88;3.55;;;22.30;78.30;;;;;;4924007;29;20681;-61
2023/07/10 02:21:38;;;;;;;6.18;3.83;;;22.30;78.60;;;;;;4920060;29;20040;-61
2023/07/10 02:24:05;;;;;;;4.97;3.58;;;22.20;78.10;;;;;;4921442;29;20032;-61
2023/07/10 02:26:30;;;;;;;6.00;3.83;;;22.20;76.40;;;;;;4900682;29;20130;-61
2023/07/10 02:28:57;;;;;;;6.40;3.65;;;22.20;76.20;;;;;;4925078;29;20182;-61
2023/07/10 02:31:25;;;;;;;5.40;3.67;;;22.20;74.30;;;;;;4926358;29;20074;-61
2023/07/10 02:33:50;;;;;;;5.93;4.10;;;22.20;74.00;;;;;;4908609;29;20136;-61
2023/07/10 02:36:16;;;;;;;4.82;3.83;;;22.20;74.40;;;;;;4909792;29;20662;-62
2023/07/10 02:38:43;;;;;;;7.88;4.03;;;22.20;74.00;;;;;;4920309;29;20034;-61
2023/07/10 02:41:09;;;;;;;7.55;3.80;;;22.20;73.10;;;;;;4901139;29;20160;-61
2023/07/10 02:43:35;;;;;;;5.88;4.13;;;22.20;73.70;;;;;;4923648;29;20038;-61
2023/07/10 02:46:02;;;;;;;6.20;4.35;;;22.30;75.30;;;;;;4921582;29;20773;-61
2023/07/10 02:48:28;;;;;;;8.63;4.60;;;22.30;73.60;;;;;;4926151;29;20058;-62
2023/07/10 02:50:54;;;;;;;5.03;3.80;;;22.30;74.20;;;;;;4923731;29;20496;-62
2023/07/10 02:53:22;;;;;;;6.25;3.80;;;22.40;74.80;;;;;;4909781;29;20043;-62
2023/07/10 02:55:47;;;;;;;5.88;4.05;;;22.40;73.20;;;;;;4918295;29;20082;-61
2023/07/10 02:58:13;;;;;;;6.65;4.60;;;22.40;72.90;;;;;;4905216;29;20027;-61
2023/07/10 03:00:39;;;;;;;6.35;4.78;;;22.40;72.30;;;;;;4917454;29;20036;-62
2023/07/10 03:03:25;;;;;;;5.97;4.18;;;22.40;73.80;;;;;;4919775;29;20034;-61
2023/07/10 03:06:07;;;;;;;8.02;4.25;;;22.40;74.00;;;;;;4927808;29;20063;-62
2023/07/10 03:08:51;;;;;;;5.82;4.22;;;22.30;73.30;;;;;;4925239;29;20059;-64
2023/07/10 03:11:23;;;;;;;5.43;4.00;;;22.30;72.30;;;;;;4925456;29;20047;-65
2023/07/10 03:14:01;;;;;;;4.40;3.40;;;22.20;73.30;;;;;;4928521;29;20158;-65
2023/07/10 03:16:30;;;;;;;6.13;4.20;;;22.30;74.40;;;;;;4923098;29;20043;-62
2023/07/10 03:19:01;;;;;;;6.13;3.80;;;22.30;74.80;;;;;;4910935;29;20496;-62
2023/07/10 03:21:28;;;;;;;5.45;3.70;;;22.30;74.90;;;;;;4928074;29;20035;-65
2023/07/10 03:23:54;;;;;;;6.00;4.20;;;22.30;75.20;;;;;;4922788;29;20051;-65
2023/07/10 03:26:20;;;;;;;5.13;3.70;;;22.40;75.30;;;;;;4923651;29;20039;-65
2023/07/10 03:28:46;;;;;;;5.35;4.03;;;22.40;75.50;;;;;;4921658;29;20090;-65
2023/07/10 03:31:11;;;;;;;5.30;4.20;;;22.40;75.80;;;;;;4922139;29;20046;-65
2023/07/10 03:33:37;;;;;;;5.63;3.72;;;22.40;75.80;;;;;;4918500;29;20136;-65
2023/07/10 03:36:06;;;;;;;4.13;3.30;;;22.40;76.10;;;;;;4920424;29;20038;-65
2023/07/10 03:38:32;;;;;;;6.07;4.00;;;22.30;76.10;;;;;;4919707;29;20035;-65
2023/07/10 03:40:59;;;;;;;5.18;4.15;;;22.30;76.00;;;;;;4925780;29;20103;-65
2023/07/10 03:43:26;;;;;;;5.88;3.95;;;22.30;76.90;;;;;;4924680;29;20032;-65
2023/07/10 03:45:52;;;;;;;5.00;3.42;;;22.20;76.90;;;;;;4922300;29;20743;-65
2023/07/10 03:48:18;;;;;;;5.18;4.03;;;22.20;77.20;;;;;;4923430;29;20070;-65
2023/07/10 03:50:44;;;;;;;5.68;3.63;;;22.10;77.40;;;;;;4921424;29;20147;-65
2023/07/10 03:53:10;;;;;;;6.43;3.90;;;22.10;77.10;;;;;;4926618;29;20041;-65
2023/07/10 03:55:36;;;;;;;4.88;3.58;;;22.10;76.60;;;;;;4919912;29;20809;-65
2023/07/10 03:58:02;;;;;;;7.40;3.88;;;22.00;76.80;;;;;;4929514;29;20081;-65
2023/07/10 04:00:28;;;;;;;8.00;4.18;;;22.10;77.70;;;;;;4926013;29;20536;-64
2023/07/10 04:02:54;;;;;;;5.68;3.47;;;22.10;78.30;;;;;;4926083;29;20409;-65
2023/07/10 04:05:19;;;;;;;4.82;4.10;;;22.10;78.10;;;;;;4924519;29;20272;-65
2023/07/10 04:07:45;;;;;;;4.97;3.90;;;22.10;78.10;;;;;;4922788;29;20051;-65
2023/07/10 04:10:11;;;;;;;7.10;4.30;;;22.10;78.10;;;;;;4920738;29;20111;-65
2023/07/10 04:12:40;;;;;;;5.03;4.15;;;22.10;77.90;;;;;;4923094;29;20175;-65
2023/07/10 04:15:07;;;;;;;5.22;3.65;;;22.20;77.90;;;;;;4926207;29;20440;-65
2023/07/10 04:17:32;;;;;;;4.93;4.28;;;22.30;78.40;;;;;;4928364;29;20122;-65
2023/07/10 04:19:58;;;;;;;4.55;3.65;;;22.30;78.30;;;;;;4926839;29;20122;-65
2023/07/10 04:22:24;;;;;;;5.30;3.88;;;22.40;77.00;;;;;;4927715;29;20107;-65
2023/07/10 04:24:50;;;;;;;7.00;4.18;;;22.40;75.50;;;;;;4922066;29;20036;-65
2023/07/10 04:27:15;;;;;;;5.07;3.75;;;22.50;75.00;;;;;;4926247;29;20044;-65
2023/07/10 04:29:41;;;;;;;5.78;4.03;;;22.60;76.10;;;;;;4922853;29;20067;-65
2023/07/10 04:32:09;;;;;;;5.10;3.53;;;22.70;75.60;;;;;;4926101;29;20043;-65
2023/07/10 04:34:34;;;;;;;6.57;3.70;;;22.80;75.90;;;;;;4928539;29;20028;-65
2023/07/10 04:37:01;;;;;;;5.57;3.88;;;22.90;75.80;;;;;;4927393;29;20373;-65
2023/07/10 04:39:27;;;;;;;4.93;4.25;;;23.00;76.80;;;;;;4925656;29;20048;-65
2023/07/10 04:41:53;;;;;;;5.40;3.70;;;23.00;76.50;;;;;;4924164;29;20027;-65
2023/07/10 04:44:18;;;;;;;5.50;3.80;;;23.00;76.40;;;;;;4926060;29;20425;-65
2023/07/10 04:46:44;;;;;;;6.05;3.80;;;23.10;76.40;;;;;;4920800;29;20044;-65
2023/07/10 04:49:10;;;;;;;4.00;3.30;;;23.10;75.90;;;;;;4922318;29;20063;-65
2023/07/10 04:51:36;;;;;;;4.05;3.45;;;23.10;76.00;;;;;;4928448;29;20063;-65
2023/07/10 04:54:01;;;;;;;5.18;3.60;;;23.10;73.60;;;;;;4927150;29;20027;-65
2023/07/10 04:56:27;;;;;;;6.25;4.00;;;23.10;74.80;;;;;;4925910;29;20503;-65
2023/07/10 04:58:56;;;;;;;6.32;3.78;;;23.00;76.50;;;;;;4923613;29;20100;-65
2023/07/10 05:01:28;;;;;;;8.13;4.72;;;23.00;76.70;;;;;;4923453;29;20039;-64
2023/07/10 05:03:54;;;;;;;7.13;4.05;;;22.90;74.40;;;;;;4921994;29;20032;-64
2023/07/10 05:06:21;;;;;;;6.88;4.40;;;22.70;74.10;;;;;;4920521;29;20040;-64
2023/07/10 05:08:47;;;;;;;15.65;5.60;;;22.70;74.30;;;;;;4926430;29;20092;-64
2023/07/10 05:11:14;;;;;;;16.13;6.10;;;22.70;80.80;;;;;;4927094;29;20130;-64
2023/07/10 05:13:40;;;;;;;13.07;5.80;;;22.50;84.50;;;;;;4924255;29;20567;-64
2023/07/10 05:16:06;;;;;;;10.43;5.60;;;22.30;87.40;;;;;;4924175;29;20028;-65
2023/07/10 05:18:32;;;;;;;7.57;5.30;;;22.20;90.10;;;;;;4921476;29;20040;-65
2023/07/10 05:20:59;;;;;;;10.43;5.13;;;21.90;90.60;;;;;;4921987;29;20035;-65
2023/07/10 05:23:25;;;;;;;14.23;6.10;;;21.70;91.20;;;;;;4922025;29;20027;-65
2023/07/10 05:26:13;;;;;;;14.02;5.93;;;21.50;92.00;;;;;;4928098;29;20059;-65
2023/07/10 05:28:38;;;;;;;11.57;5.63;;;21.40;93.50;;;;;;4924784;29;20103;-64
2023/07/10 05:31:06;;;;;;;9.75;6.15;;;21.20;94.20;;;;;;4926154;29;20051;-64
2023/07/10 05:33:32;;;;;;;12.32;5.95;;;21.00;95.30;;;;;;4923871;29;20035;-64
2023/07/10 05:36:02;;;;;;;8.57;5.28;;;20.90;96.60;;;;;;4923057;29;20032;-64
2023/07/10 05:38:30;;;;;;;7.82;5.63;;;20.70;97.70;;;;;;4921135;29;20032;-64
2023/07/10 05:40:56;;;;;;;8.38;5.93;;;20.60;98.70;;;;;;4919808;29;20040;-65
2023/07/10 05:43:23;;;;;;;7.68;5.57;;;20.50;99.50;;;;;;4923463;29;20103;-64
2023/07/10 05:45:50;;;;;;;10.68;5.32;;;20.50;99.90;;;;;;4926633;29;20556;-64
2023/07/10 05:48:16;;;;;;;8.85;5.75;;;20.50;99.90;;;;;;4926472;29;20032;-65
2023/07/10 05:50:43;;;;;;;18.52;5.72;;;20.40;99.90;;;;;;4923363;29;20517;-65
2023/07/10 05:53:09;;;;;;;7.18;5.63;;;20.40;99.90;;;;;;4923957;29;20031;-65
2023/07/10 05:55:35;;;;;;;11.00;6.18;;;20.30;99.90;;;;;;4905228;29;20167;-65
2023/07/10 05:58:01;;;;;;;11.82;5.95;;;20.30;99.90;;;;;;4921421;29;20126;-65
2023/07/10 06:00:26;;;;;;;12.82;6.68;;;20.30;99.90;;;;;;4921006;29;20559;-65
2023/07/10 06:02:52;;;;;;;10.60;6.22;;;20.20;99.90;;;;;;4923133;29;20028;-65
2023/07/10 06:05:18;;;;;;;10.40;5.72;;;20.20;99.90;;;;;;4925877;29;20508;-65
2023/07/10 06:07:44;;;;;;;8.13;6.10;;;20.10;99.90;;;;;;4923520;29;20046;-65
2023/07/10 06:10:10;;;;;;;10.23;6.10;;;20.20;99.90;;;;;;4923431;29;20044;-65
2023/07/10 06:12:35;;;;;;;9.18;6.00;;;20.20;99.90;;;;;;4922425;29;20044;-65
2023/07/10 06:15:01;;;;;;;11.30;6.50;;;20.30;99.90;;;;;;4924483;29;20078;-65
2023/07/10 06:17:27;;;;;;;9.38;6.78;;;20.30;99.90;;;;;;4918217;29;20047;-65
2023/07/10 06:19:53;;;;;;;9.70;6.55;;;20.50;99.90;;;;;;4925885;29;20090;-65
2023/07/10 06:22:19;;;;;;;12.18;6.68;;;20.50;99.90;;;;;;4926343;29;20123;-65
2023/07/10 06:24:45;;;;;;;8.57;6.13;;;20.60;99.90;;;;;;4923527;29;20043;-66
2023/07/10 06:27:10;;;;;;;8.48;6.50;;;20.70;99.90;;;;;;4923934;29;20063;-65
2023/07/10 06:29:37;;;;;;;9.05;6.68;;;20.80;99.90;;;;;;4920639;29;20040;-65
2023/07/10 06:32:04;;;;;;;9.52;6.60;;;20.90;99.90;;;;;;4922370;29;20079;-65
2023/07/10 06:34:30;;;;;;;11.18;6.55;;;21.10;99.90;;;;;;4917796;29;20036;-65
2023/07/10 06:36:56;;;;;;;6.82;5.53;;;21.20;99.90;;;;;;4926493;29;20040;-64
2023/07/10 06:39:22;;;;;;;9.05;5.85;;;21.30;99.90;;;;;;4926447;29;20591;-65
2023/07/10 06:41:48;;;;;;;8.65;5.80;;;21.50;99.90;;;;;;4924007;29;20178;-65
2023/07/10 06:44:15;;;;;;;8.52;5.57;;;21.70;99.90;;;;;;4906608;29;20102;-65
2023/07/10 06:46:41;;;;;;;10.40;6.22;;;21.90;99.90;;;;;;4920392;29;20040;-65
2023/07/10 06:49:07;;;;;;;8.85;6.18;;;22.10;99.90;;;;;;4921938;29;20035;-65
2023/07/10 06:51:35;;;;;;;9.07;5.95;;;22.30;99.90;;;;;;4918060;29;20176;-65
2023/07/10 06:54:02;;;;;;;7.75;5.20;;;22.40;99.90;;;;;;4922860;29;20035;-65
2023/07/10 06:56:29;;;;;;;10.43;6.28;;;22.50;99.90;;;;;;4926490;29;20043;-65
2023/07/10 06:58:55;;;;;;;7.65;5.90;;;22.60;99.90;;;;;;4912300;29;20032;-65
2023/07/10 07:01:21;;;;;;;9.00;6.22;;;22.60;99.90;;;;;;4922009;29;20032;-65
2023/07/10 07:03:47;;;;;;;10.45;5.85;;;22.70;99.90;;;;;;4920707;29;20032;-65
2023/07/10 07:06:13;;;;;;;9.32;6.20;;;22.70;99.90;;;;;;4921270;29;20150;-65
2023/07/10 07:08:40;;;;;;;6.10;5.25;;;22.70;99.90;;;;;;4918174;29;20028;-65
2023/07/10 07:11:06;;;;;;;9.05;5.43;;;22.70;99.90;;;;;;4920303;29;20058;-65
2023/07/10 07:13:32;;;;;;;8.20;6.35;;;22.70;99.90;;;;;;4926166;29;20501;-65
2023/07/10 07:15:58;;;;;;;10.68;6.00;;;22.80;99.90;;;;;;4924592;29;20062;-65
2023/07/10 07:18:25;;;;;;;9.15;5.13;;;22.80;99.90;;;;;;4924210;29;20040;-65
2023/07/10 07:20:51;;;;;;;8.85;6.22;;;22.90;99.90;;;;;;4921445;29;20071;-65
2023/07/10 07:23:17;;;;;;;8.70;6.45;;;23.00;99.90;;;;;;4925815;29;20063;-65
2023/07/10 07:25:43;;;;;;;6.85;5.82;;;23.00;99.90;;;;;;4921787;29;20127;-65
2023/07/10 07:28:09;;;;;;;9.10;5.80;;;23.10;99.90;;;;;;4923556;29;20028;-65
2023/07/10 07:30:35;;;;;;;7.93;5.88;;;23.10;99.90;;;;;;4927135;29;20074;-66
2023/07/10 07:33:01;;;;;;;9.02;5.95;;;23.20;99.90;;;;;;4929294;29;20032;-66
2023/07/10 07:35:27;;;;;;;9.35;6.10;;;23.30;99.90;;;;;;4928140;29;20382;-66
2023/07/10 07:37:53;;;;;;;13.60;6.28;;;23.40;99.90;;;;;;4925660;29;20040;-66
2023/07/10 07:40:19;;;;;;;7.45;5.55;;;23.50;99.90;;;;;;4925549;29;20261;-66
2023/07/10 07:42:46;;;;;;;8.13;5.28;;;23.50;99.90;;;;;;4922233;29;20075;-66
2023/07/10 07:45:13;;;;;;;7.55;5.20;;;23.60;99.90;;;;;;4923325;29;20043;-66
2023/07/10 07:47:40;;;;;;;10.95;5.38;;;23.70;99.90;;;;;;4927430;29;20479;-66
2023/07/10 07:50:07;;;;;;;8.60;5.20;;;23.70;99.90;;;;;;4912446;29;20028;-66
2023/07/10 07:52:33;;;;;;;7.60;4.78;;;23.80;99.90;;;;;;4928027;29;20086;-66
2023/07/10 07:54:58;;;;;;;10.52;5.38;;;24.00;99.90;;;;;;4926498;29;20031;-66
2023/07/10 07:57:24;;;;;;;10.43;5.57;;;24.00;99.90;;;;;;4925244;29;20039;-66
2023/07/10 07:59:51;;;;;;;8.70;5.90;;;24.10;99.90;;;;;;4926168;29;20036;-66
2023/07/10 08:02:17;;;;;;;5.78;4.88;;;24.20;99.90;;;;;;4925650;29;20024;-66
2023/07/10 08:04:43;;;;;;;6.15;5.10;;;24.20;99.90;;;;;;4923787;29;20448;-66
2023/07/10 08:07:08;;;;;;;7.35;5.18;;;24.30;99.90;;;;;;4929304;29;20099;-66
2023/07/10 08:09:35;;;;;;;7.13;5.25;;;24.30;99.90;;;;;;4927440;29;20036;-66
2023/07/10 08:12:00;;;;;;;7.60;4.82;;;24.40;99.40;;;;;;4926343;29;20039;-66
2023/07/10 08:14:28;;;;;;;7.70;5.32;;;24.40;99.90;;;;;;4924531;29;20031;-66
2023/07/10 08:16:54;;;;;;;7.25;5.88;;;24.50;99.90;;;;;;4923508;29;20115;-66
2023/07/10 08:19:20;;;;;;;7.47;5.00;;;24.60;99.90;;;;;;4922597;29;20040;-66
2023/07/10 08:21:46;;;;;;;10.73;5.75;;;24.70;99.90;;;;;;4920223;29;20108;-66
2023/07/10 08:24:13;;;;;;;9.52;6.00;;;24.80;99.60;;;;;;4928888;29;20055;-66
2023/07/10 08:26:39;;;;;;;7.10;4.43;;;24.80;97.80;;;;;;4926869;29;20055;-66
2023/07/10 08:29:26;;;;;;;7.82;6.30;;;24.80;98.50;;;;;;4926506;29;20122;-66
2023/07/10 08:31:54;;;;;;;10.43;5.97;;;24.90;98.40;;;;;;4924862;29;20035;-66
2023/07/10 08:34:19;;;;;;;11.18;6.40;;;25.00;98.10;;;;;;4922678;29;20063;-66
2023/07/10 08:36:45;;;;;;;6.35;5.50;;;25.00;97.90;;;;;;4921154;29;20147;-66
2023/07/10 08:39:11;;;;;;;9.27;5.40;;;25.00;98.60;;;;;;4926281;29;20047;-66
2023/07/10 08:41:37;;;;;;;9.35;5.72;;;25.10;96.30;;;;;;4928366;29;20035;-66
2023/07/10 08:44:04;;;;;;;8.48;5.60;;;25.10;96.00;;;;;;4927566;29;20034;-66
2023/07/10 08:46:30;;;;;;;11.20;5.80;;;25.20;95.20;;;;;;4926263;29;20051;-66
2023/07/10 08:49:14;;;;;;;7.68;5.63;;;25.30;95.60;;;;;;4924560;29;20040;-67
2023/07/10 08:52:02;;;;;;;8.68;5.20;;;25.40;95.30;;;;;;4921672;29;20036;-65
2023/07/10 08:54:28;;;;;;;10.13;5.50;;;25.40;95.90;;;;;;4922613;29;20059;-65
2023/07/10 08:57:12;;;;;;;8.88;6.38;;;25.50;96.60;;;;;;4920820;29;20200;-65
2023/07/10 08:59:38;;;;;;;7.00;5.18;;;25.50;96.40;;;;;;4925241;29;20513;-65
2023/07/10 09:02:19;;;;;;;6.97;5.40;;;25.70;96.20;;;;;;4924137;29;20031;-65
2023/07/10 09:04:47;;;;;;;7.35;5.47;;;25.80;94.80;;;;;;4924629;29;20493;-65
2023/07/10 09:07:14;;;;;;;9.40;5.90;;;25.90;95.60;;;;;;4925328;29;20031;-65
2023/07/10 09:10:07;;;;;;;9.85;5.88;;;26.00;95.60;;;;;;4920395;29;20044;-65
2023/07/10 09:12:39;;;;;;;7.50;5.70;;;26.20;93.40;;;;;;4920371;29;20112;-65
2023/07/10 09:15:07;;;;;;;8.40;5.80;;;26.30;93.40;;;;;;4924658;29;20454;-65
2023/07/10 09:18:01;;;;;;;8.23;5.15;;;26.30;94.50;;;;;;4924760;29;20036;-65
2023/07/10 09:20:27;;;;;;;9.50;6.20;;;26.40;93.80;;;;;;4924143;29;20087;-65
2023/07/10 09:23:01;;;;;;;8.15;5.45;;;26.50;93.00;;;;;;4925589;29;20044;-65
2023/07/10 09:25:27;;;;;;;9.40;6.82;;;26.50;92.90;;;;;;4923652;29;20039;-65
2023/07/10 09:27:54;;;;;;;9.20;6.38;;;26.60;93.10;;;;;;4922078;29;20071;-65
2023/07/10 09:30:26;;;;;;;8.13;5.55;;;26.70;92.40;;;;;;4921201;29;20058;-65
2023/07/10 09:33:03;;;;;;;8.48;6.13;;;26.70;93.30;;;;;;4920147;29;20218;-65
2023/07/10 09:35:30;;;;;;;7.72;6.07;;;26.80;92.50;;;;;;4927593;29;20040;-65
2023/07/10 09:37:56;;;;;;;7.57;6.60;;;26.90;92.70;;;;;;4925366;29;20106;-65
2023/07/10 09:40:44;;;;;;;8.07;5.93;;;26.90;93.00;;;;;;4923496;29;20023;-65
2023/07/10 09:43:23;;;;;;;8.20;5.45;;;26.90;91.40;;;;;;4908804;29;20233;-66
2023/07/10 09:45:56;;;;;;;10.75;6.65;;;27.00;92.00;;;;;;4920212;29;20036;-64
2023/07/10 09:48:37;;;;;;;8.32;6.18;;;27.00;91.60;;;;;;4920090;29;20416;-64
2023/07/10 09:51:07;;;;;;;9.55;7.38;;;27.20;91.80;;;;;;4923334;29;20583;-64
2023/07/10 09:53:36;;;;;;;9.52;6.70;;;27.30;92.80;;;;;;4923899;29;20115;-64
2023/07/10 09:56:02;;;;;;;9.52;7.13;;;27.40;92.30;;;;;;4925973;29;20492;-64
2023/07/10 09:58:28;;;;;;;9.30;6.45;;;27.60;91.90;;;;;;4923980;29;20042;-64
2023/07/10 10:00:58;;;;;;;11.13;7.13;;;27.70;92.10;;;;;;4922601;29;20040;-64
2023/07/10 10:03:27;;;;;;;10.27;7.03;;;27.90;92.60;;;;;;4921498;29;20486;-64
2023/07/10 10:05:57;;;;;;;10.65;6.95;;;28.00;92.60;;;;;;4918455;29;20527;-64
2023/07/10 10:08:28;;;;;;;7.53;6.72;;;28.10;90.90;;;;;;4920943;29;20695;-63
2023/07/10 10:11:05;;;;;;;8.02;6.38;;;28.20;88.50;;;;;;4927438;29;20047;-64
2023/07/10 10:13:37;;;;;;;8.32;6.85;;;28.20;88.80;;;;;;4924443;29;20039;-64
2023/07/10 10:16:10;;;;;;;11.25;6.60;;;28.20;88.80;;;;;;4927032;29;20171;-64
2023/07/10 10:18:51;;;;;;;8.50;7.20;;;28.20;88.70;;;;;;4923349;29;20416;-64
2023/07/10 10:21:19;;;;;;;10.32;7.03;;;28.30;88.60;;;;;;4920778;29;20036;-64
2023/07/10 10:23:48;;;;;;;7.53;6.38;;;28.30;86.40;;;;;;4917659;29;20039;-64
2023/07/10 10:26:29;;;;;;;10.63;6.63;;;28.40;86.10;;;;;;4918245;29;20099;-63
2023/07/10 10:29:09;;;;;;;8.20;6.60;;;28.50;89.20;;;;;;4925111;29;20035;-64
2023/07/10 10:31:40;;;;;;;9.25;6.97;;;28.60;87.40;;;;;;4922221;29;20500;-64
2023/07/10 10:34:23;;;;;;;9.25;7.00;;;28.70;85.80;;;;;;4920922;29;20933;-64
2023/07/10 10:37:04;;;;;;;7.95;6.85;;;28.80;85.90;;;;;;4920236;29;20126;-64
2023/07/10 10:39:44;;;;;;;8.88;7.18;;;28.90;85.10;;;;;;4919019;29;20039;-64
2023/07/10 10:42:23;;;;;;;9.55;6.28;;;28.90;86.90;;;;;;4918363;29;20593;-64
2023/07/10 10:45:01;;;;;;;6.95;6.10;;;29.00;85.60;;;;;;4921141;29;20106;-65
2023/07/10 10:47:30;;;;;;;7.40;6.57;;;29.20;84.10;;;;;;4925585;29;20035;-65
2023/07/10 10:50:22;;;;;;;8.32;6.68;;;29.30;80.70;;;;;;4923527;29;20055;-65
2023/07/10 10:53:30;;;;;;;9.25;6.88;;;29.40;82.00;;;;;;4920679;29;20040;-65
2023/07/10 10:56:26;;;;;;;8.40;6.82;;;29.40;84.00;;;;;;4916882;29;20062;-65
2023/07/10 10:59:09;;;;;;;9.23;6.45;;;29.50;82.30;;;;;;4919186;29;20046;-64
2023/07/10 11:01:41;;;;;;;9.70;6.10;;;29.60;79.70;;;;;;4920258;29;20088;-64
2023/07/10 11:04:13;;;;;;;7.35;6.32;;;29.60;80.30;;;;;;4921929;29;20433;-64
2023/07/10 11:06:48;;;;;;;6.80;6.10;;;29.50;81.00;;;;;;4923896;29;20032;-64
2023/07/10 11:09:24;;;;;;;6.78;5.32;;;29.60;79.70;;;;;;4923676;29;20150;-65
2023/07/10 11:11:51;;;;;;;7.13;5.65;;;29.60;80.20;;;;;;4920567;29;20051;-64
2023/07/10 11:14:17;;;;;;;8.27;5.43;;;29.70;80.10;;;;;;4920747;29;20111;-64
2023/07/10 11:16:43;;;;;;;9.13;6.03;;;29.70;80.10;;;;;;4917574;29;20036;-65
2023/07/10 11:19:16;;;;;;;8.00;6.40;;;29.80;81.20;;;;;;4919485;29;20062;-64
2023/07/10 11:21:42;;;;;;;8.68;6.30;;;29.80;79.30;;;;;;4925299;29;20059;-64
2023/07/10 11:24:37;;;;;;;8.90;6.85;;;29.80;79.50;;;;;;4925775;29;20074;-64
2023/07/10 11:27:12;;;;;;;7.63;6.50;;;29.70;76.70;;;;;;4914816;29;20048;-64
2023/07/10 11:29:52;;;;;;;10.70;7.53;;;29.70;76.10;;;;;;4920291;29;20115;-65
2023/07/10 11:32:19;;;;;;;9.40;6.90;;;29.60;79.20;;;;;;4920457;29;20047;-64
2023/07/10 11:35:16;;;;;;;9.68;6.70;;;29.60;79.20;;;;;;4898861;29;20400;-64
2023/07/10 11:38:02;;;;;;;10.95;7.10;;;29.60;80.80;;;;;;4903795;29;20040;-64
2023/07/10 11:40:27;;;;;;;;;;;29.60;79.80;;;;;;4925894;29;20032;-64
2023/07/10 11:43:21;;;;;;;10.48;6.05;;;29.60;80.70;;;;;;4921951;29;19922;-64
2023/07/10 11:46:04;;;;;;;8.18;6.28;;;29.70;82.70;;;;;;4922380;29;20039;-64
2023/07/10 11:48:39;;;;;;;8.63;6.88;;;29.70;80.80;;;;;;4920140;29;20484;-64
2023/07/10 11:51:32;;;;;;;9.75;6.38;;;29.80;80.20;;;;;;4919620;29;20094;-65
2023/07/10 11:54:04;;;;;;;10.38;6.93;;;29.60;82.10;;;;;;4918219;29;20043;-64
2023/07/10 11:56:31;;;;;;;7.43;6.55;;;29.50;82.70;;;;;;4922282;29;20031;-64
2023/07/10 11:59:14;;;;;;;7.15;6.45;;;29.30;85.10;;;;;;4924068;29;20501;-64
2023/07/10 12:01:41;;;;;;;8.27;5.80;;;29.10;85.10;;;;;;4921964;29;20063;-64
2023/07/10 12:04:14;;;;;;;10.25;5.07;;;29.10;87.40;;;;;;4908669;29;20051;-64
2023/07/10 12:06:45;;;;;;;6.68;5.40;;;29.10;87.00;;;;;;4919235;29;20474;-64
2023/07/10 12:09:11;;;;;;;9.45;5.03;;;29.00;86.50;;;;;;4921843;29;20035;-64
2023/07/10 12:11:39;;;;;;;6.10;5.50;;;29.00;87.40;;;;;;4919066;29;20505;-65
2023/07/10 12:14:09;;;;;;;9.85;5.68;;;29.00;88.80;;;;;;4924779;29;20503;-64
2023/07/10 12:16:48;;;;;;;6.75;5.47;;;29.00;88.10;;;;;;4927937;29;20044;-64
2023/07/10 12:19:22;;;;;;;8.88;5.43;;;28.90;88.60;;;;;;4923508;29;20179;-65
2023/07/10 12:21:48;;;;;;;9.45;6.13;;;28.80;88.20;;;;;;4926171;29;20043;-65
2023/07/10 12:24:16;;;;;;;9.43;5.60;;;28.70;87.50;;;;;;4928821;29;20747;-66
2023/07/10 12:26:43;;;;;;;6.53;5.60;;;28.70;88.60;;;;;;4921832;29;20036;-65
2023/07/10 12:29:13;;;;;;;9.70;6.28;;;28.70;88.90;;;;;;4925116;29;20054;-65
2023/07/10 12:31:40;;;;;;;9.35;6.40;;;28.60;89.50;;;;;;4926253;29;20138;-65
2023/07/10 12:34:30;;;;;;;6.47;5.80;;;28.70;89.20;;;;;;4927256;29;20043;-65
2023/07/10 12:37:00;;;;;;;7.00;5.45;;;28.80;90.00;;;;;;4925839;29;20564;-65
2023/07/10 12:39:26;;;;;;;6.63;5.10;;;28.70;88.30;;;;;;4927136;29;20126;-65
2023/07/10 12:41:54;;;;;;;7.13;5.55;;;28.70;87.10;;;;;;4922544;29;20123;-65
2023/07/10 12:44:39;;;;;;;6.75;5.78;;;28.60;87.50;;;;;;4922224;29;20039;-65
2023/07/10 12:47:04;;;;;;;11.70;5.70;;;28.60;88.20;;;;;;4922245;29;20130;-65
2023/07/10 12:49:32;;;;;;;6.00;5.35;;;28.60;89.30;;;;;;4924837;29;20126;-65
2023/07/10 12:51:59;;;;;;;6.32;5.05;;;28.70;89.60;;;;;;4927994;29;20031;-65
2023/07/10 12:54:38;;;;;;;7.65;6.15;;;28.70;89.60;;;;;;4922521;29;20035;-65
2023/07/10 12:57:18;;;;;;;6.88;6.10;;;28.70;87.60;;;;;;4922867;29;20103;-65
2023/07/10 12:59:54;;;;;;;7.70;6.47;;;28.60;88.10;;;;;;4921404;29;20095;-64